Time;durP1;ratioP1;P1;durP2;ratioP2;P2;SDS_P1;SDS_P2;PMS_P1;PMS_P2;Temp;Humidity;BMP_temperature;BMP_pressure;BME280_temperature;BME280_humidity;BME280_pressure;Samples;Min_cycle;Max_cycle;Signal;HPM_P1;HPM_P2
2020/12/04 00:00:16;;;;;;;23.33;15.93;;;4.40;99.90;;;;;;4399805;32;20292;-66
2020/12/04 00:02:48;;;;;;;19.93;15.40;;;4.40;99.90;;;;;;4403630;32;20326;-68
2020/12/04 00:05:16;;;;;;;22.67;15.53;;;4.40;99.90;;;;;;4392758;32;20157;-66
2020/12/04 00:07:45;;;;;;;28.60;17.07;;;4.40;99.90;;;;;;4392611;32;20205;-69
2020/12/04 00:10:13;;;;;;;24.00;16.67;;;4.40;99.90;;;;;;4392952;32;20564;-70
2020/12/04 00:12:40;;;;;;;24.00;16.90;;;4.40;99.90;;;;;;4389271;32;20189;-70
2020/12/04 00:15:07;;;;;;;26.17;17.73;;;4.40;99.90;;;;;;4393213;32;20159;-70
2020/12/04 00:17:34;;;;;;;25.17;17.43;;;4.40;99.90;;;;;;4403315;32;20174;-68
2020/12/04 00:20:01;;;;;;;25.93;17.57;;;4.40;99.90;;;;;;4404276;32;20167;-69
2020/12/04 00:22:55;;;;;;;26.47;17.93;;;4.40;99.90;;;;;;4401035;32;20223;-70
2020/12/04 00:25:22;;;;;;;27.27;18.10;;;4.30;99.90;;;;;;4389360;32;20207;-68
2020/12/04 00:27:55;;;;;;;24.30;17.13;;;4.40;99.90;;;;;;4391969;32;20212;-70
2020/12/04 00:30:22;;;;;;;26.07;17.13;;;4.40;99.90;;;;;;4397367;32;20177;-67
2020/12/04 00:32:49;;;;;;;25.80;17.70;;;4.30;99.90;;;;;;4397987;32;20203;-68
2020/12/04 00:35:15;;;;;;;25.87;17.13;;;4.30;99.90;;;;;;4389307;32;20156;-69
2020/12/04 00:37:42;;;;;;;30.53;18.93;;;4.30;99.90;;;;;;4394095;32;20160;-70
2020/12/04 00:40:09;;;;;;;25.33;17.57;;;4.30;99.90;;;;;;4405101;32;20156;-71
2020/12/04 00:42:36;;;;;;;27.30;18.67;;;4.20;99.90;;;;;;4405651;32;20174;-71
2020/12/04 00:45:03;;;;;;;25.03;17.00;;;4.20;99.90;;;;;;4394603;32;20161;-71
2020/12/04 00:47:31;;;;;;;26.97;17.43;;;4.20;99.90;;;;;;4393684;32;20214;-70
2020/12/04 00:49:59;;;;;;;24.37;15.93;;;4.20;99.90;;;;;;4393861;32;20153;-69
2020/12/04 00:52:26;;;;;;;28.20;18.63;;;4.10;99.90;;;;;;4392768;32;20188;-71
2020/12/04 00:54:55;;;;;;;30.03;17.93;;;4.20;99.90;;;;;;4392732;32;20160;-69
2020/12/04 00:57:22;;;;;;;25.57;15.80;;;4.20;99.90;;;;;;4391495;32;20271;-71
2020/12/04 00:59:51;;;;;;;25.70;17.13;;;4.20;99.90;;;;;;4396105;32;20152;-68
2020/12/04 01:02:27;;;;;;;25.83;16.53;;;4.20;99.90;;;;;;4406024;32;20191;-68
2020/12/04 01:04:57;;;;;;;26.83;17.13;;;4.10;99.90;;;;;;4396168;32;20148;-68
2020/12/04 01:07:23;;;;;;;24.80;16.10;;;4.20;99.90;;;;;;4399625;32;20160;-69
2020/12/04 01:09:50;;;;;;;25.47;15.93;;;4.20;99.90;;;;;;4399352;32;20207;-70
2020/12/04 01:12:20;;;;;;;23.00;15.47;;;4.20;99.90;;;;;;4392973;32;20202;-70
2020/12/04 01:14:51;;;;;;;24.33;15.80;;;4.20;99.90;;;;;;4402931;32;20195;-68
2020/12/04 01:17:17;;;;;;;25.30;17.03;;;4.20;99.90;;;;;;4393456;32;20160;-67
2020/12/04 01:19:44;;;;;;;24.17;16.23;;;4.20;99.90;;;;;;4405174;32;20264;-68
2020/12/04 01:22:22;;;;;;;23.10;15.40;;;4.20;99.90;;;;;;4393174;32;20637;-68
2020/12/04 01:25:08;;;;;;;23.57;15.07;;;4.20;99.90;;;;;;4400306;32;20181;-68
2020/12/04 01:27:35;;;;;;;23.40;15.70;;;4.20;99.90;;;;;;4329181;33;20223;-68
2020/12/04 01:30:07;;;;;;;23.90;15.40;;;4.20;99.90;;;;;;4329153;33;20165;-67
2020/12/04 01:32:39;;;;;;;21.50;15.23;;;4.20;99.90;;;;;;4330953;33;20298;-68
2020/12/04 01:35:05;;;;;;;26.43;15.33;;;4.20;99.90;;;;;;4328853;33;20398;-68
2020/12/04 01:37:35;;;;;;;25.43;15.87;;;4.20;99.90;;;;;;4329502;33;20169;-68
2020/12/04 01:40:02;;;;;;;23.20;15.07;;;4.20;99.90;;;;;;4328849;33;20175;-68
2020/12/04 01:42:29;;;;;;;22.70;15.23;;;4.20;99.90;;;;;;4328131;33;20260;-67
2020/12/04 01:44:57;;;;;;;26.23;16.73;;;4.20;99.90;;;;;;4329425;33;20253;-68
2020/12/04 01:47:30;;;;;;;25.00;15.77;;;4.20;99.90;;;;;;4329181;33;20234;-68
2020/12/04 01:49:57;;;;;;;25.07;17.17;;;4.20;99.90;;;;;;4329439;33;20215;-66
2020/12/04 01:52:29;;;;;;;24.33;16.50;;;4.20;99.90;;;;;;4328324;33;20216;-67
2020/12/04 01:54:56;;;;;;;27.30;15.40;;;4.20;99.90;;;;;;4324857;33;20252;-67
2020/12/04 01:57:27;;;;;;;26.63;16.50;;;4.20;99.90;;;;;;4329166;33;20194;-68
2020/12/04 01:59:54;;;;;;;26.47;16.43;;;4.20;99.90;;;;;;4328955;33;20177;-67
2020/12/04 02:02:23;;;;;;;22.87;15.63;;;4.20;99.90;;;;;;4328148;33;20201;-68
2020/12/04 02:04:51;;;;;;;26.03;16.13;;;4.20;99.90;;;;;;4374880;32;20156;-68
2020/12/04 02:07:29;;;;;;;29.87;17.10;;;4.20;99.90;;;;;;4380795;32;20186;-67
2020/12/04 02:10:02;;;;;;;30.20;17.77;;;4.20;99.90;;;;;;4397438;32;20208;-68
2020/12/04 02:12:33;;;;;;;24.70;15.40;;;4.10;99.90;;;;;;4405784;32;20190;-68
2020/12/04 02:14:59;;;;;;;24.73;16.80;;;4.20;99.90;;;;;;4405307;32;20601;-66
2020/12/04 02:17:31;;;;;;;26.27;15.70;;;4.20;99.90;;;;;;4403911;32;20214;-66
2020/12/04 02:20:00;;;;;;;24.60;16.20;;;4.20;99.90;;;;;;4404449;32;20156;-67
2020/12/04 02:22:34;;;;;;;23.33;15.07;;;4.20;99.90;;;;;;4402756;32;20190;-68
2020/12/04 02:25:10;;;;;;;26.90;16.03;;;4.20;99.90;;;;;;4390778;32;20585;-67
2020/12/04 02:27:44;;;;;;;25.03;14.80;;;4.20;99.90;;;;;;4398416;32;20626;-66
2020/12/04 02:30:28;;;;;;;22.63;15.53;;;4.20;99.90;;;;;;4400202;32;20152;-64
2020/12/04 02:32:55;;;;;;;25.00;15.33;;;4.20;99.90;;;;;;4390805;32;20615;-65
2020/12/04 02:35:21;;;;;;;24.80;15.57;;;4.20;99.90;;;;;;4389920;32;20588;-66
2020/12/04 02:37:52;;;;;;;28.97;16.93;;;4.20;99.90;;;;;;4390915;32;20517;-68
2020/12/04 02:40:25;;;;;;;26.27;16.77;;;4.20;99.90;;;;;;4390948;32;20180;-67
2020/12/04 02:42:54;;;;;;;23.37;14.80;;;4.20;99.90;;;;;;4402148;32;20150;-67
2020/12/04 02:45:20;;;;;;;28.20;15.83;;;4.20;99.90;;;;;;4392087;32;20190;-67
2020/12/04 02:47:47;;;;;;;22.77;14.93;;;4.20;99.90;;;;;;4400127;32;20475;-67
2020/12/04 02:50:13;;;;;;;23.87;14.33;;;4.20;99.90;;;;;;4405520;32;20204;-68
2020/12/04 02:52:41;;;;;;;25.73;15.47;;;4.30;99.90;;;;;;4390712;32;20183;-67
2020/12/04 02:55:08;;;;;;;24.00;13.93;;;4.20;99.90;;;;;;4390234;32;20188;-67
2020/12/04 02:57:35;;;;;;;22.50;14.30;;;4.20;99.90;;;;;;4392322;32;20144;-66
2020/12/04 03:00:01;;;;;;;21.63;13.97;;;4.30;99.90;;;;;;4389635;32;20176;-66
2020/12/04 03:02:27;;;;;;;21.87;13.73;;;4.20;99.90;;;;;;4395543;32;20178;-66
2020/12/04 03:04:54;;;;;;;20.07;13.47;;;4.20;99.90;;;;;;4390167;32;20180;-67
2020/12/04 03:07:38;;;;;;;21.90;13.87;;;4.30;99.90;;;;;;4393477;32;20239;-67
2020/12/04 03:10:09;;;;;;;20.20;13.13;;;4.30;99.90;;;;;;4390209;32;20178;-68
2020/12/04 03:12:43;;;;;;;19.53;12.53;;;4.30;99.90;;;;;;4392662;32;20153;-67
2020/12/04 03:15:13;;;;;;;20.00;12.23;;;4.40;99.90;;;;;;4390151;32;20186;-67
2020/12/04 03:17:44;;;;;;;21.70;12.73;;;4.30;99.90;;;;;;4389776;32;20175;-68
2020/12/04 03:20:13;;;;;;;19.07;12.47;;;4.40;99.90;;;;;;4390186;32;20159;-67
2020/12/04 03:22:43;;;;;;;18.80;13.10;;;4.40;99.90;;;;;;4390503;32;20516;-68
2020/12/04 03:25:10;;;;;;;21.93;13.53;;;4.30;99.90;;;;;;4391648;32;20868;-68
2020/12/04 03:27:37;;;;;;;19.60;13.13;;;4.30;99.90;;;;;;4393470;32;20180;-67
2020/12/04 03:30:04;;;;;;;19.50;11.57;;;4.30;99.90;;;;;;4389838;32;20174;-67
2020/12/04 03:32:30;;;;;;;19.63;12.53;;;4.40;99.90;;;;;;4389877;32;20186;-65
2020/12/04 03:34:56;;;;;;;17.80;12.07;;;4.40;99.90;;;;;;4391464;32;20218;-67
2020/12/04 03:37:23;;;;;;;18.53;12.30;;;4.40;99.90;;;;;;4390855;32;20187;-67
2020/12/04 03:39:55;;;;;;;17.53;11.53;;;4.40;99.90;;;;;;4395792;32;20441;-66
2020/12/04 03:42:26;;;;;;;18.80;11.70;;;4.40;99.90;;;;;;4397379;32;20210;-68
2020/12/04 03:44:57;;;;;;;18.23;12.07;;;4.40;99.90;;;;;;4387754;32;20203;-67
2020/12/04 03:47:24;;;;;;;16.30;11.77;;;4.30;99.90;;;;;;4394863;32;20466;-68
2020/12/04 03:49:51;;;;;;;17.27;10.87;;;4.40;99.90;;;;;;4389382;32;20212;-67
2020/12/04 03:52:20;;;;;;;15.90;11.07;;;4.40;99.90;;;;;;4389312;32;20163;-67
2020/12/04 03:54:46;;;;;;;17.70;12.13;;;4.30;99.90;;;;;;4396726;32;20195;-68
2020/12/04 03:57:21;;;;;;;15.87;11.50;;;4.30;99.90;;;;;;4398806;32;20207;-69
2020/12/04 04:00:08;;;;;;;14.47;9.83;;;4.40;99.90;;;;;;4386995;32;20168;-68
2020/12/04 04:02:39;;;;;;;16.80;11.43;;;4.40;99.90;;;;;;4395892;32;20179;-69
2020/12/04 04:05:12;;;;;;;19.43;12.00;;;4.40;99.90;;;;;;4396114;32;20168;-66
2020/12/04 04:07:44;;;;;;;15.27;10.17;;;4.40;99.90;;;;;;4404411;32;20850;-67
2020/12/04 04:10:17;;;;;;;14.93;10.23;;;4.40;99.90;;;;;;4404080;32;20166;-66
2020/12/04 04:12:43;;;;;;;12.97;9.73;;;4.40;99.90;;;;;;4404958;32;20476;-67
2020/12/04 04:15:18;;;;;;;16.07;10.40;;;4.40;99.90;;;;;;4403495;32;20198;-68
2020/12/04 04:17:44;;;;;;;14.23;9.43;;;4.40;99.90;;;;;;4400409;32;20170;-67
2020/12/04 04:20:10;;;;;;;13.67;9.27;;;4.40;99.90;;;;;;4402912;32;20159;-67
2020/12/04 04:22:37;;;;;;;15.17;10.27;;;4.50;99.90;;;;;;4403691;32;20169;-65
2020/12/04 04:25:08;;;;;;;16.30;10.07;;;4.40;99.90;;;;;;4403736;32;20179;-67
2020/12/04 04:27:46;;;;;;;11.33;8.90;;;4.40;99.90;;;;;;4405219;32;20178;-67
2020/12/04 04:30:17;;;;;;;11.53;8.40;;;4.40;99.90;;;;;;4399794;32;20216;-67
2020/12/04 04:32:47;;;;;;;15.23;9.10;;;4.50;99.90;;;;;;4390295;32;20174;-67
2020/12/04 04:35:20;;;;;;;12.77;8.17;;;4.50;99.90;;;;;;4399816;32;20167;-67
2020/12/04 04:37:52;;;;;;;12.23;8.27;;;4.50;99.90;;;;;;4405212;32;20543;-66
2020/12/04 04:40:18;;;;;;;11.53;7.93;;;4.50;99.90;;;;;;4392295;32;20191;-68
2020/12/04 04:42:45;;;;;;;10.77;7.07;;;4.50;99.90;;;;;;4402148;32;20222;-67
2020/12/04 04:45:25;;;;;;;9.77;7.07;;;4.50;99.90;;;;;;4394536;32;20160;-69
2020/12/04 04:47:52;;;;;;;8.43;6.93;;;4.60;99.90;;;;;;4400714;32;20199;-68
2020/12/04 04:50:20;;;;;;;10.43;6.93;;;4.60;99.90;;;;;;4398616;32;20221;-69
2020/12/04 04:52:47;;;;;;;9.40;6.70;;;4.60;99.90;;;;;;4391845;32;20219;-68
2020/12/04 04:55:14;;;;;;;9.87;6.47;;;4.60;99.90;;;;;;4392848;32;20156;-68
2020/12/04 04:57:40;;;;;;;7.13;6.00;;;4.60;99.90;;;;;;4394875;32;20152;-68
2020/12/04 05:00:07;;;;;;;9.57;6.03;;;4.70;99.90;;;;;;4397459;32;20202;-67
2020/12/04 05:02:34;;;;;;;7.00;5.33;;;4.70;99.90;;;;;;4403349;32;20162;-68
2020/12/04 05:05:00;;;;;;;6.90;4.87;;;4.70;99.90;;;;;;4399091;32;20185;-68
2020/12/04 05:07:30;;;;;;;6.60;5.20;;;4.70;99.90;;;;;;4400892;32;20345;-68
2020/12/04 05:10:10;;;;;;;6.70;4.97;;;4.70;99.90;;;;;;4400317;32;20720;-68
2020/12/04 05:12:36;;;;;;;6.83;4.83;;;4.70;99.90;;;;;;4405970;32;20480;-67
2020/12/04 05:15:23;;;;;;;6.03;5.00;;;4.70;99.90;;;;;;4392496;32;20171;-68
2020/12/04 05:18:06;;;;;;;7.23;4.73;;;4.70;99.90;;;;;;4391317;32;20155;-68
2020/12/04 05:20:33;;;;;;;6.57;4.63;;;4.70;99.90;;;;;;4398409;32;20187;-68
2020/12/04 05:23:01;;;;;;;7.50;5.07;;;4.80;99.90;;;;;;4405687;32;20171;-67
2020/12/04 05:25:36;;;;;;;5.33;4.33;;;4.70;99.90;;;;;;4396840;32;20351;-68
2020/12/04 05:28:19;;;;;;;10.40;4.43;;;4.70;99.90;;;;;;4396178;32;20201;-66
2020/12/04 05:30:51;;;;;;;5.77;4.47;;;4.70;99.90;;;;;;4394632;32;20175;-67
2020/12/04 05:33:28;;;;;;;5.43;3.97;;;4.70;99.90;;;;;;4397883;32;20157;-67
2020/12/04 05:36:01;;;;;;;5.87;4.10;;;4.60;99.90;;;;;;4403909;32;20195;-68
2020/12/04 05:38:40;;;;;;;5.20;3.90;;;4.70;99.90;;;;;;4406351;32;20157;-70
2020/12/04 05:41:09;;;;;;;4.57;4.10;;;4.70;99.90;;;;;;4398562;32;20159;-68
2020/12/04 05:43:39;;;;;;;4.17;3.60;;;4.70;99.90;;;;;;4398792;32;20176;-70
2020/12/04 05:46:19;;;;;;;4.53;3.57;;;4.80;99.90;;;;;;4395304;32;20248;-70
2020/12/04 05:48:58;;;;;;;5.30;3.43;;;4.90;99.90;;;;;;4391321;32;20148;-68
2020/12/04 05:51:35;;;;;;;4.00;3.10;;;4.80;99.90;;;;;;4401694;32;20167;-69
2020/12/04 05:54:07;;;;;;;4.73;3.50;;;4.80;99.90;;;;;;4390953;32;20599;-69
2020/12/04 05:56:34;;;;;;;5.03;3.53;;;4.90;99.90;;;;;;4392096;32;20181;-70
2020/12/04 05:59:10;;;;;;;5.77;3.67;;;5.00;99.90;;;;;;4391277;32;20155;-69
2020/12/04 06:01:43;;;;;;;6.27;4.40;;;5.00;99.90;;;;;;4404792;32;20194;-68
2020/12/04 06:04:16;;;;;;;4.30;3.50;;;5.10;99.90;;;;;;4396141;32;20202;-69
2020/12/04 06:06:49;;;;;;;4.13;3.20;;;5.10;99.90;;;;;;4399273;32;20185;-70
2020/12/04 06:09:25;;;;;;;4.00;3.47;;;5.10;99.90;;;;;;4403791;32;20178;-71
2020/12/04 06:11:53;;;;;;;4.00;3.07;;;5.00;99.90;;;;;;4400013;32;20228;-70
2020/12/04 06:14:22;;;;;;;3.07;2.77;;;5.00;99.90;;;;;;4393622;32;20176;-67
2020/12/04 06:17:11;;;;;;;4.07;3.00;;;5.10;99.90;;;;;;4395330;32;20160;-68
2020/12/04 06:19:40;;;;;;;3.53;3.00;;;5.10;99.90;;;;;;4390364;32;20212;-69
2020/12/04 06:22:14;;;;;;;3.17;2.87;;;5.10;99.90;;;;;;4394794;32;20653;-69
2020/12/04 06:25:03;;;;;;;3.53;2.60;;;5.10;99.90;;;;;;4398827;32;20160;-70
2020/12/04 06:27:42;;;;;;;3.53;2.83;;;5.20;99.90;;;;;;4400110;32;20213;-68
2020/12/04 06:30:14;;;;;;;4.03;2.83;;;5.20;99.90;;;;;;4398276;32;20211;-68
2020/12/04 06:35:44;;;;;;;2.93;2.63;;;5.20;99.90;;;;;;4394298;32;20232;-72
2020/12/04 06:38:44;;;;;;;4.53;2.80;;;5.30;99.90;;;;;;4394774;32;20247;-69
2020/12/04 06:41:28;;;;;;;3.13;2.30;;;5.30;99.90;;;;;;4394667;32;20177;-68
2020/12/04 06:44:04;;;;;;;2.50;2.30;;;5.30;99.90;;;;;;4391751;32;20159;-68
2020/12/04 06:46:40;;;;;;;5.23;2.50;;;5.30;99.90;;;;;;4395041;32;20182;-72
2020/12/04 06:49:34;;;;;;;2.53;2.33;;;5.40;99.90;;;;;;4394498;32;20563;-68
2020/12/04 06:52:29;;;;;;;4.10;2.80;;;5.40;99.90;;;;;;4385450;32;20235;-67
2020/12/04 06:54:58;;;;;;;3.37;2.33;;;5.40;99.90;;;;;;4393768;32;20160;-68
2020/12/04 06:57:25;;;;;;;3.33;2.60;;;5.40;99.90;;;;;;4393970;32;20175;-68
2020/12/04 06:59:51;;;;;;;2.40;2.20;;;5.50;99.90;;;;;;4389360;32;21065;-69
2020/12/04 07:02:20;;;;;;;3.20;2.83;;;5.50;99.90;;;;;;4393956;32;20203;-67
2020/12/04 07:04:53;;;;;;;3.17;2.67;;;5.50;99.90;;;;;;4396114;32;20193;-68
2020/12/04 07:07:26;;;;;;;3.17;2.60;;;5.50;99.90;;;;;;4395240;32;20163;-67
2020/12/04 07:09:55;;;;;;;3.13;2.57;;;5.50;99.90;;;;;;4393588;32;20224;-67
2020/12/04 07:12:30;;;;;;;3.53;2.63;;;5.50;99.90;;;;;;4397980;32;20178;-68
2020/12/04 07:15:00;;;;;;;2.57;2.00;;;5.40;99.90;;;;;;4396089;32;20548;-67
2020/12/04 07:17:34;;;;;;;3.83;1.93;;;5.30;99.90;;;;;;4392008;32;20206;-68
2020/12/04 07:20:14;;;;;;;4.27;2.47;;;5.40;99.90;;;;;;4396394;32;20156;-68
2020/12/04 07:22:44;;;;;;;2.90;2.23;;;5.40;99.90;;;;;;4390034;32;20174;-69
2020/12/04 07:25:15;;;;;;;3.10;2.30;;;5.40;99.90;;;;;;4392927;32;20196;-68
2020/12/04 07:27:43;;;;;;;2.53;2.00;;;5.40;99.90;;;;;;4395459;32;20166;-70
2020/12/04 07:30:14;;;;;;;2.40;2.17;;;5.50;99.90;;;;;;4390906;32;20213;-68
2020/12/04 07:32:53;;;;;;;2.90;2.17;;;5.50;99.90;;;;;;4398428;32;20156;-67
2020/12/04 07:35:21;;;;;;;7.20;3.20;;;5.50;99.90;;;;;;4392590;32;21546;-68
2020/12/04 07:38:07;;;;;;;3.40;2.50;;;5.50;99.90;;;;;;4398742;32;20175;-68
2020/12/04 07:40:33;;;;;;;5.80;2.40;;;5.60;99.90;;;;;;4395846;32;20194;-69
2020/12/04 07:43:08;;;;;;;2.80;2.20;;;5.60;99.90;;;;;;4394015;32;20178;-68
2020/12/04 07:45:43;;;;;;;4.07;2.50;;;5.60;99.90;;;;;;4393416;32;20223;-69
2020/12/04 07:48:17;;;;;;;3.77;2.27;;;5.60;99.90;;;;;;4393851;32;20193;-69
2020/12/04 07:53:30;;;;;;;1.93;1.77;;;5.60;99.90;;;;;;4393021;32;20285;-69
2020/12/04 07:56:06;;;;;;;3.03;2.00;;;5.70;99.90;;;;;;4394225;32;20555;-67
2020/12/04 07:58:34;;;;;;;1.67;1.37;;;5.70;99.90;;;;;;4393239;32;20203;-67
2020/12/04 08:01:03;;;;;;;2.43;1.60;;;5.80;99.90;;;;;;4396847;32;20160;-68
2020/12/04 08:03:38;;;;;;;2.83;1.20;;;5.80;99.90;;;;;;4393815;32;20187;-66
2020/12/04 08:06:15;;;;;;;2.37;1.23;;;5.90;99.90;;;;;;4395208;32;20155;-67
2020/12/04 08:08:46;;;;;;;2.43;1.10;;;6.00;99.90;;;;;;4386736;32;20254;-67
2020/12/04 08:11:27;;;;;;;7.87;4.67;;;6.10;99.90;;;;;;4396098;32;20550;-67
2020/12/04 08:13:59;;;;;;;2.03;0.60;;;6.00;99.90;;;;;;4401940;32;20202;-68
2020/12/04 08:16:33;;;;;;;0.80;0.60;;;6.10;99.90;;;;;;4394596;32;20189;-69
2020/12/04 08:19:12;;;;;;;1.27;0.67;;;6.30;99.90;;;;;;4397734;32;20185;-67
2020/12/04 08:22:05;;;;;;;2.10;0.50;;;6.30;99.90;;;;;;4394260;32;20149;-67
2020/12/04 08:24:39;;;;;;;0.70;0.43;;;6.30;99.90;;;;;;4399825;32;20530;-69
2020/12/04 08:27:19;;;;;;;0.83;0.50;;;6.30;99.90;;;;;;4399530;32;20196;-66
2020/12/04 08:30:09;;;;;;;1.00;0.43;;;6.20;99.90;;;;;;4392087;32;20166;-66
2020/12/04 08:32:43;;;;;;;0.97;0.40;;;6.10;99.90;;;;;;4400227;32;20190;-67
2020/12/04 08:35:13;;;;;;;1.63;0.67;;;6.10;99.90;;;;;;4396576;32;20157;-67
2020/12/04 08:37:45;;;;;;;1.43;0.87;;;6.10;99.90;;;;;;4394844;32;20156;-67
2020/12/04 08:40:39;;;;;;;1.00;0.50;;;6.10;99.90;;;;;;4394986;32;20211;-67
2020/12/04 08:43:12;;;;;;;0.93;0.50;;;6.30;99.90;;;;;;4340283;33;20534;-67
2020/12/04 08:45:48;;;;;;;1.70;0.60;;;6.30;99.90;;;;;;4340727;33;20543;-68
2020/12/04 08:48:28;;;;;;;1.50;0.67;;;6.30;99.90;;;;;;4341293;33;20152;-68
2020/12/04 08:51:05;;;;;;;1.07;0.50;;;6.30;99.90;;;;;;4340172;33;20232;-68
2020/12/04 08:53:35;;;;;;;1.40;0.80;;;6.30;99.90;;;;;;4338417;33;20184;-68
2020/12/04 08:56:11;;;;;;;1.97;0.80;;;6.30;99.90;;;;;;4340318;33;20188;-68
2020/12/04 08:58:42;;;;;;;1.27;0.77;;;6.30;99.90;;;;;;4340512;33;20176;-67
2020/12/04 09:01:21;;;;;;;0.97;0.70;;;6.40;99.90;;;;;;4344095;33;20504;-68
2020/12/04 09:03:49;;;;;;;2.40;0.60;;;6.30;99.90;;;;;;4343341;33;20149;-67
2020/12/04 09:06:20;;;;;;;1.47;0.70;;;6.30;99.90;;;;;;4341266;33;20752;-68
2020/12/04 09:08:55;;;;;;;0.67;0.60;;;6.30;99.90;;;;;;4344315;33;20161;-70
2020/12/04 09:11:42;;;;;;;2.10;0.70;;;6.40;99.90;;;;;;4344379;33;20232;-69
2020/12/04 09:14:15;;;;;;;1.13;0.80;;;6.40;99.90;;;;;;4343743;33;20177;-68
2020/12/04 09:16:44;;;;;;;1.43;0.60;;;6.50;99.90;;;;;;4339180;33;20187;-68
2020/12/04 09:19:14;;;;;;;1.07;0.77;;;6.50;99.90;;;;;;4361329;32;20171;-68
2020/12/04 09:21:40;;;;;;;1.00;0.70;;;6.50;99.90;;;;;;4400441;32;20164;-68
2020/12/04 09:24:15;;;;;;;5.90;2.73;;;6.60;99.90;;;;;;4392579;32;20258;-67
2020/12/04 09:26:47;;;;;;;2.93;0.97;;;6.70;99.90;;;;;;4393173;32;20219;-67
2020/12/04 09:29:15;;;;;;;2.27;0.90;;;6.70;99.90;;;;;;4392199;32;20356;-68
2020/12/04 09:31:41;;;;;;;1.80;1.27;;;6.70;99.90;;;;;;4399618;32;20213;-67
2020/12/04 09:34:16;;;;;;;2.67;1.77;;;6.70;99.90;;;;;;4396832;32;20231;-68
2020/12/04 09:36:55;;;;;;;1.90;1.10;;;6.70;99.90;;;;;;4389417;32;20209;-68
2020/12/04 09:39:34;;;;;;;1.30;0.90;;;6.70;99.90;;;;;;4391870;32;20163;-68
2020/12/04 09:42:12;;;;;;;3.53;1.37;;;6.80;99.90;;;;;;4392698;32;20151;-68
2020/12/04 09:44:42;;;;;;;1.27;1.00;;;6.70;99.90;;;;;;4392386;32;20174;-67
2020/12/04 09:47:19;;;;;;;2.07;1.10;;;6.70;99.90;;;;;;4389834;32;20164;-68
2020/12/04 09:49:53;;;;;;;1.50;0.70;;;6.70;99.90;;;;;;4393766;32;20206;-67
2020/12/04 09:52:27;;;;;;;4.47;1.00;;;6.70;99.90;;;;;;4394867;32;20167;-67
2020/12/04 09:54:59;;;;;;;1.37;0.87;;;6.90;99.90;;;;;;4392606;32;20217;-66
2020/12/04 09:57:35;;;;;;;1.23;1.00;;;6.80;99.90;;;;;;4395913;32;20183;-67
2020/12/04 10:00:05;;;;;;;1.70;0.80;;;6.80;99.90;;;;;;4406674;32;20166;-68
2020/12/04 10:02:32;;;;;;;1.17;1.00;;;6.90;99.90;;;;;;4397071;32;20194;-67
2020/12/04 10:04:58;;;;;;;1.03;0.73;;;6.80;99.90;;;;;;4400377;32;20596;-67
2020/12/04 10:07:26;;;;;;;0.67;0.60;;;6.80;99.90;;;;;;4405600;32;20151;-68
2020/12/04 10:10:02;;;;;;;0.70;0.60;;;6.80;99.90;;;;;;4403993;32;20178;-67
2020/12/04 10:12:34;;;;;;;1.70;0.73;;;6.60;99.90;;;;;;4400216;32;20164;-67
2020/12/04 10:15:04;;;;;;;1.07;0.77;;;6.80;99.90;;;;;;4393692;32;20199;-67
2020/12/04 10:17:36;;;;;;;2.47;1.10;;;6.80;99.90;;;;;;4402334;32;20168;-67
2020/12/04 10:20:03;;;;;;;0.97;0.70;;;6.80;99.90;;;;;;4397181;32;20155;-66
2020/12/04 10:22:30;;;;;;;2.00;1.07;;;6.90;99.90;;;;;;4399026;32;20148;-66
2020/12/04 10:24:58;;;;;;;0.90;0.60;;;6.90;99.90;;;;;;4407594;32;20206;-67
2020/12/04 10:27:35;;;;;;;1.87;0.80;;;6.90;99.90;;;;;;4400309;32;20152;-67
2020/12/04 10:30:20;;;;;;;0.67;0.63;;;6.90;99.90;;;;;;4407087;32;20224;-67
2020/12/04 10:32:53;;;;;;;1.07;0.90;;;6.90;99.90;;;;;;4396049;32;20568;-67
2020/12/04 10:35:28;;;;;;;1.03;0.73;;;7.00;99.90;;;;;;4404083;32;20592;-67
2020/12/04 10:38:06;;;;;;;0.87;0.80;;;7.00;99.90;;;;;;4398713;32;20571;-67
2020/12/04 10:40:39;;;;;;;3.43;0.83;;;7.00;99.90;;;;;;4390703;32;20140;-67
2020/12/04 10:43:05;;;;;;;1.57;0.60;;;7.10;99.90;;;;;;4393602;32;20334;-66
2020/12/04 10:45:47;;;;;;;3.00;0.83;;;7.30;99.90;;;;;;4394813;32;20693;-66
2020/12/04 10:48:19;;;;;;;1.50;0.73;;;7.30;99.90;;;;;;4397966;32;20242;-66
2020/12/04 10:50:48;;;;;;;2.63;0.70;;;7.20;99.90;;;;;;4391898;32;20164;-68
2020/12/04 10:53:14;;;;;;;0.87;0.70;;;7.20;99.90;;;;;;4395441;32;20190;-66
2020/12/04 10:55:48;;;;;;;3.53;0.90;;;7.10;99.90;;;;;;4393366;32;20167;-68
2020/12/04 10:58:18;;;;;;;1.30;0.90;;;7.10;99.90;;;;;;4390882;32;20156;-67
2020/12/04 11:00:48;;;;;;;0.40;0.40;;;7.10;99.90;;;;;;4402657;32;20181;-68
2020/12/04 11:03:25;;;;;;;1.07;0.47;;;7.20;99.90;;;;;;4398249;32;20548;-66
2020/12/04 11:05:53;;;;;;;2.80;1.20;;;7.10;99.90;;;;;;4400645;32;20552;-67
2020/12/04 11:08:21;;;;;;;3.37;1.93;;;7.20;99.90;;;;;;4399211;32;20550;-66
2020/12/04 11:10:59;;;;;;;1.10;0.90;;;7.30;99.90;;;;;;4392601;32;20205;-67
2020/12/04 11:13:32;;;;;;;3.20;1.00;;;7.40;99.90;;;;;;4397232;32;20178;-66
2020/12/04 11:16:05;;;;;;;0.70;0.70;;;7.20;99.90;;;;;;4391746;32;20156;-66
2020/12/04 11:18:31;;;;;;;1.33;0.80;;;7.40;99.90;;;;;;4394302;32;20157;-67
2020/12/04 11:21:00;;;;;;;1.17;0.40;;;7.40;99.90;;;;;;4389527;32;20160;-65
2020/12/04 11:23:33;;;;;;;2.53;0.70;;;7.20;99.90;;;;;;4390853;32;20199;-66
2020/12/04 11:26:02;;;;;;;0.67;0.50;;;7.00;99.90;;;;;;4390791;32;20519;-66
2020/12/04 11:28:44;;;;;;;0.97;0.77;;;7.10;99.90;;;;;;4396949;32;20194;-65
2020/12/04 11:31:15;;;;;;;0.50;0.50;;;7.20;99.90;;;;;;4402159;32;20171;-66
2020/12/04 11:33:41;;;;;;;0.53;0.50;;;7.30;99.90;;;;;;4396367;32;20151;-65
2020/12/04 11:36:08;;;;;;;0.67;0.67;;;7.30;99.90;;;;;;4393787;32;20179;-69
2020/12/04 11:38:39;;;;;;;0.80;0.40;;;7.30;99.90;;;;;;4393135;32;20156;-65
2020/12/04 11:41:12;;;;;;;0.93;0.40;;;7.40;99.90;;;;;;4390480;32;20144;-66
2020/12/04 11:43:42;;;;;;;0.57;0.53;;;7.30;99.90;;;;;;4393733;32;20145;-68
2020/12/04 11:46:08;;;;;;;1.90;0.40;;;7.40;99.90;;;;;;4392832;32;20579;-68
2020/12/04 11:48:41;;;;;;;2.10;0.53;;;7.40;99.90;;;;;;4389393;32;20152;-67
2020/12/04 11:51:10;;;;;;;0.60;0.53;;;7.30;99.90;;;;;;4394020;32;20155;-69
2020/12/04 11:53:42;;;;;;;0.73;0.53;;;7.30;99.90;;;;;;4392975;32;20658;-67
2020/12/04 11:56:11;;;;;;;1.30;0.70;;;7.30;99.90;;;;;;4391432;32;20148;-67
2020/12/04 11:58:47;;;;;;;0.73;0.73;;;7.30;99.90;;;;;;4396130;32;20167;-67
2020/12/04 12:01:13;;;;;;;1.37;0.50;;;7.30;99.90;;;;;;4398268;32;20524;-67
2020/12/04 12:03:40;;;;;;;0.67;0.50;;;7.30;99.90;;;;;;4398491;32;20190;-66
2020/12/04 12:06:08;;;;;;;0.67;0.60;;;7.20;99.90;;;;;;4392531;32;20210;-66
2020/12/04 12:08:34;;;;;;;0.77;0.70;;;7.30;99.90;;;;;;4396849;32;20163;-67
2020/12/04 12:11:05;;;;;;;0.60;0.60;;;7.30;99.90;;;;;;4400894;32;20167;-66
2020/12/04 12:13:35;;;;;;;0.83;0.50;;;7.30;99.90;;;;;;4397726;32;20152;-64
2020/12/04 12:16:07;;;;;;;0.60;0.60;;;7.30;99.90;;;;;;4391038;32;20179;-67
2020/12/04 12:18:34;;;;;;;1.27;0.60;;;7.20;99.90;;;;;;4399633;32;20144;-68
2020/12/04 12:21:11;;;;;;;3.23;0.60;;;7.00;99.90;;;;;;4389403;32;20170;-67
2020/12/04 12:23:41;;;;;;;0.80;0.57;;;7.00;99.90;;;;;;4396425;32;20564;-67
2020/12/04 12:26:10;;;;;;;4.60;0.43;;;7.00;99.90;;;;;;4392258;32;20275;-66
2020/12/04 12:28:40;;;;;;;0.43;0.40;;;7.10;99.90;;;;;;4396536;32;20156;-67
2020/12/04 12:31:13;;;;;;;1.37;0.70;;;7.10;99.90;;;;;;4392222;32;20190;-66
2020/12/04 12:33:48;;;;;;;1.83;0.60;;;7.20;99.90;;;;;;4392125;32;20191;-66
2020/12/04 12:36:18;;;;;;;1.20;0.90;;;7.30;99.90;;;;;;4402498;32;20189;-67
2020/12/04 12:38:49;;;;;;;0.80;0.60;;;7.20;99.90;;;;;;4404055;32;20227;-67
2020/12/04 12:41:25;;;;;;;0.63;0.60;;;7.30;99.90;;;;;;4399958;32;20136;-67
2020/12/04 12:43:52;;;;;;;2.83;0.80;;;7.30;99.90;;;;;;4400852;32;20159;-68
2020/12/04 12:46:21;;;;;;;1.17;0.70;;;7.30;99.90;;;;;;4392411;32;20215;-65
2020/12/04 12:48:57;;;;;;;1.50;0.80;;;7.10;99.90;;;;;;4392740;32;20179;-66
2020/12/04 12:51:30;;;;;;;1.23;0.90;;;7.00;99.90;;;;;;4395115;32;20495;-68
2020/12/04 12:54:12;;;;;;;0.80;0.80;;;7.10;99.90;;;;;;4392380;32;20156;-67
2020/12/04 12:56:47;;;;;;;1.13;0.60;;;7.00;99.90;;;;;;4394313;32;20184;-67
2020/12/04 12:59:26;;;;;;;0.90;0.60;;;7.10;99.90;;;;;;4391142;32;20156;-67
2020/12/04 13:02:03;;;;;;;1.00;0.60;;;7.00;99.90;;;;;;4392593;32;20159;-67
2020/12/04 13:04:37;;;;;;;0.90;0.77;;;7.10;99.90;;;;;;4401183;32;20171;-68
2020/12/04 13:07:04;;;;;;;2.87;0.87;;;7.10;99.90;;;;;;4397121;32;20184;-68
2020/12/04 13:09:34;;;;;;;0.53;0.53;;;7.10;99.90;;;;;;4399858;32;20160;-67
2020/12/04 13:12:01;;;;;;;1.43;0.50;;;7.10;99.90;;;;;;4395687;32;20190;-66
2020/12/04 13:14:55;;;;;;;1.10;0.60;;;7.10;99.90;;;;;;4396882;32;20244;-67
2020/12/04 13:17:39;;;;;;;;;;;;;;;;;;;;;
2020/12/04 13:20:05;;;;;;;1.60;0.80;;;7.10;99.90;;;;;;4397607;32;20178;-70